sensor_id;sensor_type;location;lat;lon;timestamp;temperature;humidity
70475;DHT22;57944;48.722;9.316;2023-05-10T00:01:38;13.80;99.90
70475;DHT22;57944;48.722;9.316;2023-05-10T00:04:08;13.80;99.90
70475;DHT22;57944;48.722;9.316;2023-05-10T00:06:38;13.80;99.90
70475;DHT22;57944;48.722;9.316;2023-05-10T00:09:08;13.70;99.90
70475;DHT22;57944;48.722;9.316;2023-05-10T00:11:38;13.70;99.90
70475;DHT22;57944;48.722;9.316;2023-05-10T00:14:10;13.70;99.90
70475;DHT22;57944;48.722;9.316;2023-05-10T00:16:41;13.70;99.90
70475;DHT22;57944;48.722;9.316;2023-05-10T00:19:11;13.70;99.90
70475;DHT22;57944;48.722;9.316;2023-05-10T00:21:41;13.70;99.90
70475;DHT22;57944;48.722;9.316;2023-05-10T00:24:11;13.70;99.90
70475;DHT22;57944;48.722;9.316;2023-05-10T00:26:41;13.60;99.90
70475;DHT22;57944;48.722;9.316;2023-05-10T00:29:14;13.60;99.90
70475;DHT22;57944;48.722;9.316;2023-05-10T00:31:44;13.60;99.90
70475;DHT22;57944;48.722;9.316;2023-05-10T00:34:14;13.50;99.90
70475;DHT22;57944;48.722;9.316;2023-05-10T00:36:44;13.40;99.90
70475;DHT22;57944;48.722;9.316;2023-05-10T00:39:14;13.30;99.90
70475;DHT22;57944;48.722;9.316;2023-05-10T00:41:44;13.30;99.90
70475;DHT22;57944;48.722;9.316;2023-05-10T00:44:18;13.10;99.90
70475;DHT22;57944;48.722;9.316;2023-05-10T00:46:48;13.20;99.90
70475;DHT22;57944;48.722;9.316;2023-05-10T00:49:18;13.20;99.90
70475;DHT22;57944;48.722;9.316;2023-05-10T00:51:50;13.20;99.90
70475;DHT22;57944;48.722;9.316;2023-05-10T00:54:19;13.10;99.90
70475;DHT22;57944;48.722;9.316;2023-05-10T00:56:50;13.20;99.90
70475;DHT22;57944;48.722;9.316;2023-05-10T00:59:23;13.10;99.90
70475;DHT22;57944;48.722;9.316;2023-05-10T01:01:53;13.10;99.90
70475;DHT22;57944;48.722;9.316;2023-05-10T01:04:23;13.10;99.90
70475;DHT22;57944;48.722;9.316;2023-05-10T01:06:54;13.00;99.90
70475;DHT22;57944;48.722;9.316;2023-05-10T01:09:23;12.90;99.90
70475;DHT22;57944;48.722;9.316;2023-05-10T01:11:55;12.80;99.90
70475;DHT22;57944;48.722;9.316;2023-05-10T01:14:28;12.80;99.90
70475;DHT22;57944;48.722;9.316;2023-05-10T01:16:59;12.70;99.90
70475;DHT22;57944;48.722;9.316;2023-05-10T01:19:30;12.70;99.90
70475;DHT22;57944;48.722;9.316;2023-05-10T01:22:06;12.60;99.90
70475;DHT22;57944;48.722;9.316;2023-05-10T01:25:02;12.60;99.90
70475;DHT22;57944;48.722;9.316;2023-05-10T01:27:54;12.50;99.90
70475;DHT22;57944;48.722;9.316;2023-05-10T01:31:02;12.50;99.90
70475;DHT22;57944;48.722;9.316;2023-05-10T01:33:41;12.50;99.90
70475;DHT22;57944;48.722;9.316;2023-05-10T01:36:18;12.60;99.90
70475;DHT22;57944;48.722;9.316;2023-05-10T01:38:56;12.50;99.90
70475;DHT22;57944;48.722;9.316;2023-05-10T01:41:33;12.60;99.90
70475;DHT22;57944;48.722;9.316;2023-05-10T01:44:10;12.60;99.90
70475;DHT22;57944;48.722;9.316;2023-05-10T01:46:48;12.60;99.90
70475;DHT22;57944;48.722;9.316;2023-05-10T01:49:31;12.50;99.90
70475;DHT22;57944;48.722;9.316;2023-05-10T01:52:06;12.50;99.90
70475;DHT22;57944;48.722;9.316;2023-05-10T01:54:41;12.50;99.90
70475;DHT22;57944;48.722;9.316;2023-05-10T01:57:15;12.60;99.90
70475;DHT22;57944;48.722;9.316;2023-05-10T01:59:49;12.60;99.90
70475;DHT22;57944;48.722;9.316;2023-05-10T02:02:20;12.50;99.90
70475;DHT22;57944;48.722;9.316;2023-05-10T02:04:54;12.40;99.90
70475;DHT22;57944;48.722;9.316;2023-05-10T02:07:26;12.40;99.90
70475;DHT22;57944;48.722;9.316;2023-05-10T02:09:57;12.40;99.90
70475;DHT22;57944;48.722;9.316;2023-05-10T02:12:28;12.40;99.90
70475;DHT22;57944;48.722;9.316;2023-05-10T02:15:02;12.50;99.90
70475;DHT22;57944;48.722;9.316;2023-05-10T02:17:35;12.40;99.90
70475;DHT22;57944;48.722;9.316;2023-05-10T02:20:11;12.30;99.90
70475;DHT22;57944;48.722;9.316;2023-05-10T02:22:42;12.30;99.90
70475;DHT22;57944;48.722;9.316;2023-05-10T02:25:14;12.30;99.90
70475;DHT22;57944;48.722;9.316;2023-05-10T02:27:47;12.30;99.90
70475;DHT22;57944;48.722;9.316;2023-05-10T02:30:18;12.40;99.90
70475;DHT22;57944;48.722;9.316;2023-05-10T02:32:49;12.40;99.90
70475;DHT22;57944;48.722;9.316;2023-05-10T02:35:23;12.40;99.90
70475;DHT22;57944;48.722;9.316;2023-05-10T02:37:54;12.40;99.90
70475;DHT22;57944;48.722;9.316;2023-05-10T02:40:29;12.40;99.90
70475;DHT22;57944;48.722;9.316;2023-05-10T02:43:00;12.40;99.90
70475;DHT22;57944;48.722;9.316;2023-05-10T02:45:31;12.40;99.90
70475;DHT22;57944;48.722;9.316;2023-05-10T02:48:05;12.50;99.90
70475;DHT22;57944;48.722;9.316;2023-05-10T02:50:38;12.40;99.90
70475;DHT22;57944;48.722;9.316;2023-05-10T02:53:15;12.30;99.90
70475;DHT22;57944;48.722;9.316;2023-05-10T02:55:49;12.30;99.90
70475;DHT22;57944;48.722;9.316;2023-05-10T02:58:21;12.30;99.90
70475;DHT22;57944;48.722;9.316;2023-05-10T03:00:51;12.40;99.90
70475;DHT22;57944;48.722;9.316;2023-05-10T03:03:21;12.40;99.90
70475;DHT22;57944;48.722;9.316;2023-05-10T03:05:54;12.50;99.90
70475;DHT22;57944;48.722;9.316;2023-05-10T03:08:25;12.50;99.90
70475;DHT22;57944;48.722;9.316;2023-05-10T03:11:01;12.60;99.90
70475;DHT22;57944;48.722;9.316;2023-05-10T03:13:40;12.70;99.90
70475;DHT22;57944;48.722;9.316;2023-05-10T03:16:16;12.60;99.90
70475;DHT22;57944;48.722;9.316;2023-05-10T03:18:54;12.70;99.90
70475;DHT22;57944;48.722;9.316;2023-05-10T03:21:34;12.70;99.90
70475;DHT22;57944;48.722;9.316;2023-05-10T03:24:11;12.60;99.90
70475;DHT22;57944;48.722;9.316;2023-05-10T03:26:44;12.60;99.90
70475;DHT22;57944;48.722;9.316;2023-05-10T03:29:17;12.60;99.90
70475;DHT22;57944;48.722;9.316;2023-05-10T03:31:48;12.60;99.90
70475;DHT22;57944;48.722;9.316;2023-05-10T03:34:22;12.60;99.90
70475;DHT22;57944;48.722;9.316;2023-05-10T03:36:55;12.60;99.90
70475;DHT22;57944;48.722;9.316;2023-05-10T03:39:29;12.60;99.90
70475;DHT22;57944;48.722;9.316;2023-05-10T03:42:00;12.60;99.90
70475;DHT22;57944;48.722;9.316;2023-05-10T03:44:30;12.70;99.90
70475;DHT22;57944;48.722;9.316;2023-05-10T03:47:00;12.70;99.90
70475;DHT22;57944;48.722;9.316;2023-05-10T03:49:30;12.70;99.90
70475;DHT22;57944;48.722;9.316;2023-05-10T03:52:04;12.70;99.90
70475;DHT22;57944;48.722;9.316;2023-05-10T03:54:34;12.80;99.90
70475;DHT22;57944;48.722;9.316;2023-05-10T03:57:04;12.80;99.90
70475;DHT22;57944;48.722;9.316;2023-05-10T03:59:34;12.80;99.90
70475;DHT22;57944;48.722;9.316;2023-05-10T04:02:04;12.90;99.90
70475;DHT22;57944;48.722;9.316;2023-05-10T04:04:35;12.80;99.90
70475;DHT22;57944;48.722;9.316;2023-05-10T04:07:08;12.80;99.90
70475;DHT22;57944;48.722;9.316;2023-05-10T04:09:39;12.80;99.90
70475;DHT22;57944;48.722;9.316;2023-05-10T04:12:09;12.70;99.90
70475;DHT22;57944;48.722;9.316;2023-05-10T04:14:39;12.80;99.90
70475;DHT22;57944;48.722;9.316;2023-05-10T04:17:09;12.80;99.90
70475;DHT22;57944;48.722;9.316;2023-05-10T04:19:39;12.70;99.90
70475;DHT22;57944;48.722;9.316;2023-05-10T04:22:12;12.70;99.90
70475;DHT22;57944;48.722;9.316;2023-05-10T04:24:42;12.70;99.90
70475;DHT22;57944;48.722;9.316;2023-05-10T04:27:12;12.60;99.90
70475;DHT22;57944;48.722;9.316;2023-05-10T04:29:42;12.60;99.90
70475;DHT22;57944;48.722;9.316;2023-05-10T04:32:12;12.50;99.90
70475;DHT22;57944;48.722;9.316;2023-05-10T04:34:43;12.50;99.90
70475;DHT22;57944;48.722;9.316;2023-05-10T04:37:15;12.50;99.90
70475;DHT22;57944;48.722;9.316;2023-05-10T04:39:46;12.50;99.90
70475;DHT22;57944;48.722;9.316;2023-05-10T04:42:16;12.70;99.90
70475;DHT22;57944;48.722;9.316;2023-05-10T04:44:45;12.80;99.90
70475;DHT22;57944;48.722;9.316;2023-05-10T04:47:15;12.80;99.90
70475;DHT22;57944;48.722;9.316;2023-05-10T04:49:45;12.80;99.90
70475;DHT22;57944;48.722;9.316;2023-05-10T04:52:18;12.80;99.90
70475;DHT22;57944;48.722;9.316;2023-05-10T04:54:48;12.80;99.90
70475;DHT22;57944;48.722;9.316;2023-05-10T04:57:18;12.90;99.90
70475;DHT22;57944;48.722;9.316;2023-05-10T04:59:48;12.80;99.90
70475;DHT22;57944;48.722;9.316;2023-05-10T05:02:18;13.00;99.90
70475;DHT22;57944;48.722;9.316;2023-05-10T05:04:48;13.00;99.90
70475;DHT22;57944;48.722;9.316;2023-05-10T05:07:21;13.20;99.90
70475;DHT22;57944;48.722;9.316;2023-05-10T05:09:50;13.20;99.90
70475;DHT22;57944;48.722;9.316;2023-05-10T05:12:20;13.30;99.90
70475;DHT22;57944;48.722;9.316;2023-05-10T05:14:50;13.30;99.90
70475;DHT22;57944;48.722;9.316;2023-05-10T05:17:20;13.50;99.90
70475;DHT22;57944;48.722;9.316;2023-05-10T05:19:50;13.60;99.90
70475;DHT22;57944;48.722;9.316;2023-05-10T05:22:23;13.80;99.90
70475;DHT22;57944;48.722;9.316;2023-05-10T05:24:54;13.90;99.90
70475;DHT22;57944;48.722;9.316;2023-05-10T05:27:24;14.10;99.90
70475;DHT22;57944;48.722;9.316;2023-05-10T05:29:55;14.20;99.90
70475;DHT22;57944;48.722;9.316;2023-05-10T05:32:25;14.20;99.90
70475;DHT22;57944;48.722;9.316;2023-05-10T05:34:56;14.40;99.90
70475;DHT22;57944;48.722;9.316;2023-05-10T05:37:28;14.40;99.90
70475;DHT22;57944;48.722;9.316;2023-05-10T05:39:58;14.30;99.90
70475;DHT22;57944;48.722;9.316;2023-05-10T05:42:28;14.40;99.90
70475;DHT22;57944;48.722;9.316;2023-05-10T05:45:00;14.40;99.90
70475;DHT22;57944;48.722;9.316;2023-05-10T05:47:30;14.50;99.90
70475;DHT22;57944;48.722;9.316;2023-05-10T05:50:00;14.40;99.90
70475;DHT22;57944;48.722;9.316;2023-05-10T05:52:32;14.50;99.90
70475;DHT22;57944;48.722;9.316;2023-05-10T05:55:03;14.60;99.90
70475;DHT22;57944;48.722;9.316;2023-05-10T05:57:33;14.60;99.90
70475;DHT22;57944;48.722;9.316;2023-05-10T06:00:05;14.80;99.90
70475;DHT22;57944;48.722;9.316;2023-05-10T06:02:39;14.70;99.90
70475;DHT22;57944;48.722;9.316;2023-05-10T06:05:09;14.60;99.90
70475;DHT22;57944;48.722;9.316;2023-05-10T06:07:43;14.60;99.90
70475;DHT22;57944;48.722;9.316;2023-05-10T06:10:13;14.70;99.90
70475;DHT22;57944;48.722;9.316;2023-05-10T06:12:43;14.60;99.90
70475;DHT22;57944;48.722;9.316;2023-05-10T06:15:13;14.70;99.90
70475;DHT22;57944;48.722;9.316;2023-05-10T06:17:43;15.00;99.90
70475;DHT22;57944;48.722;9.316;2023-05-10T06:20:15;15.10;99.90
70475;DHT22;57944;48.722;9.316;2023-05-10T06:22:48;15.20;99.90
70475;DHT22;57944;48.722;9.316;2023-05-10T06:25:18;15.30;99.90
70475;DHT22;57944;48.722;9.316;2023-05-10T06:27:48;15.50;99.90
70475;DHT22;57944;48.722;9.316;2023-05-10T06:30:22;15.60;99.90
70475;DHT22;57944;48.722;9.316;2023-05-10T06:32:55;15.50;99.90
70475;DHT22;57944;48.722;9.316;2023-05-10T06:35:26;15.50;99.90
70475;DHT22;57944;48.722;9.316;2023-05-10T06:37:58;15.50;99.90
70475;DHT22;57944;48.722;9.316;2023-05-10T06:40:28;15.60;99.90
70475;DHT22;57944;48.722;9.316;2023-05-10T06:42:59;15.80;99.90
70475;DHT22;57944;48.722;9.316;2023-05-10T06:45:29;16.10;99.90
70475;DHT22;57944;48.722;9.316;2023-05-10T06:47:59;16.10;99.90
70475;DHT22;57944;48.722;9.316;2023-05-10T06:50:29;16.10;99.90
70475;DHT22;57944;48.722;9.316;2023-05-10T06:53:02;16.00;99.90
70475;DHT22;57944;48.722;9.316;2023-05-10T06:55:32;15.80;99.90
70475;DHT22;57944;48.722;9.316;2023-05-10T06:58:02;15.90;99.90
70475;DHT22;57944;48.722;9.316;2023-05-10T07:00:32;15.80;99.90
70475;DHT22;57944;48.722;9.316;2023-05-10T07:03:05;15.80;99.90
70475;DHT22;57944;48.722;9.316;2023-05-10T07:05:36;15.70;99.90
70475;DHT22;57944;48.722;9.316;2023-05-10T07:08:08;15.70;99.90
70475;DHT22;57944;48.722;9.316;2023-05-10T07:10:38;15.60;99.90
70475;DHT22;57944;48.722;9.316;2023-05-10T07:13:08;15.50;99.90
70475;DHT22;57944;48.722;9.316;2023-05-10T07:15:38;15.60;99.90
70475;DHT22;57944;48.722;9.316;2023-05-10T07:18:09;15.70;99.90
70475;DHT22;57944;48.722;9.316;2023-05-10T07:20:39;15.60;99.90
70475;DHT22;57944;48.722;9.316;2023-05-10T07:23:11;15.50;99.90
70475;DHT22;57944;48.722;9.316;2023-05-10T07:25:41;15.30;99.90
70475;DHT22;57944;48.722;9.316;2023-05-10T07:28:14;15.30;99.90
70475;DHT22;57944;48.722;9.316;2023-05-10T07:30:44;15.40;99.90
70475;DHT22;57944;48.722;9.316;2023-05-10T07:33:15;15.40;99.90
70475;DHT22;57944;48.722;9.316;2023-05-10T07:35:45;15.50;99.90
70475;DHT22;57944;48.722;9.316;2023-05-10T07:38:17;15.70;99.90
70475;DHT22;57944;48.722;9.316;2023-05-10T07:43:18;16.80;99.90
70475;DHT22;57944;48.722;9.316;2023-05-10T07:45:48;17.50;99.90
70475;DHT22;57944;48.722;9.316;2023-05-10T07:48:21;17.90;99.90
70475;DHT22;57944;48.722;9.316;2023-05-10T07:50:51;18.40;99.90
70475;DHT22;57944;48.722;9.316;2023-05-10T07:53:27;18.50;99.90
70475;DHT22;57944;48.722;9.316;2023-05-10T07:55:57;18.60;99.90
70475;DHT22;57944;48.722;9.316;2023-05-10T07:58:28;18.90;99.90
70475;DHT22;57944;48.722;9.316;2023-05-10T08:00:57;18.80;99.90
70475;DHT22;57944;48.722;9.316;2023-05-10T08:03:28;18.60;99.90
70475;DHT22;57944;48.722;9.316;2023-05-10T08:05:58;18.50;99.90
70475;DHT22;57944;48.722;9.316;2023-05-10T08:08:30;18.90;99.90
70475;DHT22;57944;48.722;9.316;2023-05-10T08:11:00;19.00;99.90
70475;DHT22;57944;48.722;9.316;2023-05-10T08:13:30;19.00;99.90
70475;DHT22;57944;48.722;9.316;2023-05-10T08:16:00;18.60;99.90
70475;DHT22;57944;48.722;9.316;2023-05-10T08:18:30;18.30;99.90
70475;DHT22;57944;48.722;9.316;2023-05-10T08:21:00;18.10;99.90
70475;DHT22;57944;48.722;9.316;2023-05-10T08:23:33;18.20;99.90
70475;DHT22;57944;48.722;9.316;2023-05-10T08:26:03;18.00;99.90
70475;DHT22;57944;48.722;9.316;2023-05-10T08:28:33;18.10;99.90
70475;DHT22;57944;48.722;9.316;2023-05-10T08:31:04;18.20;99.90
70475;DHT22;57944;48.722;9.316;2023-05-10T08:33:34;18.20;99.90
70475;DHT22;57944;48.722;9.316;2023-05-10T08:36:04;18.30;99.90
70475;DHT22;57944;48.722;9.316;2023-05-10T08:38:37;18.00;99.90
70475;DHT22;57944;48.722;9.316;2023-05-10T08:41:07;18.20;99.90
70475;DHT22;57944;48.722;9.316;2023-05-10T08:43:37;18.30;99.90
70475;DHT22;57944;48.722;9.316;2023-05-10T08:46:08;18.70;99.90
70475;DHT22;57944;48.722;9.316;2023-05-10T08:48:39;18.70;99.90
70475;DHT22;57944;48.722;9.316;2023-05-10T08:51:11;18.90;99.90
70475;DHT22;57944;48.722;9.316;2023-05-10T08:53:46;18.90;99.90
70475;DHT22;57944;48.722;9.316;2023-05-10T08:56:16;19.10;99.90
70475;DHT22;57944;48.722;9.316;2023-05-10T08:58:47;19.40;99.90
70475;DHT22;57944;48.722;9.316;2023-05-10T09:01:17;19.70;99.90
70475;DHT22;57944;48.722;9.316;2023-05-10T09:03:48;19.90;99.90
70475;DHT22;57944;48.722;9.316;2023-05-10T09:06:20;19.90;99.90
70475;DHT22;57944;48.722;9.316;2023-05-10T09:08:52;19.80;99.90
70475;DHT22;57944;48.722;9.316;2023-05-10T09:11:22;19.70;99.90
70475;DHT22;57944;48.722;9.316;2023-05-10T09:13:55;19.80;99.90
70475;DHT22;57944;48.722;9.316;2023-05-10T09:16:25;19.90;99.90
70475;DHT22;57944;48.722;9.316;2023-05-10T09:18:56;19.70;99.90
70475;DHT22;57944;48.722;9.316;2023-05-10T09:21:26;19.80;99.90
70475;DHT22;57944;48.722;9.316;2023-05-10T09:24:00;19.70;99.90
70475;DHT22;57944;48.722;9.316;2023-05-10T09:26:32;18.90;99.90
70475;DHT22;57944;48.722;9.316;2023-05-10T09:29:02;18.50;99.90
70475;DHT22;57944;48.722;9.316;2023-05-10T09:31:43;18.20;99.90
70475;DHT22;57944;48.722;9.316;2023-05-10T09:34:17;18.00;99.90
70475;DHT22;57944;48.722;9.316;2023-05-10T09:36:52;17.70;99.90
70475;DHT22;57944;48.722;9.316;2023-05-10T09:39:35;17.40;99.90
70475;DHT22;57944;48.722;9.316;2023-05-10T09:42:06;17.30;99.90
70475;DHT22;57944;48.722;9.316;2023-05-10T09:44:38;17.30;99.90
70475;DHT22;57944;48.722;9.316;2023-05-10T09:47:10;17.30;99.90
70475;DHT22;57944;48.722;9.316;2023-05-10T09:49:40;17.20;99.90
70475;DHT22;57944;48.722;9.316;2023-05-10T09:52:11;16.80;99.90
70475;DHT22;57944;48.722;9.316;2023-05-10T09:54:44;16.30;99.90
70475;DHT22;57944;48.722;9.316;2023-05-10T09:57:23;15.60;99.90
70475;DHT22;57944;48.722;9.316;2023-05-10T09:59:54;14.90;99.90
70475;DHT22;57944;48.722;9.316;2023-05-10T10:02:28;14.80;99.90
70475;DHT22;57944;48.722;9.316;2023-05-10T10:04:59;14.90;99.90
70475;DHT22;57944;48.722;9.316;2023-05-10T10:07:30;15.10;99.90
70475;DHT22;57944;48.722;9.316;2023-05-10T10:10:04;15.60;99.90
70475;DHT22;57944;48.722;9.316;2023-05-10T10:12:38;16.30;99.90
70475;DHT22;57944;48.722;9.316;2023-05-10T10:15:11;16.90;99.90
70475;DHT22;57944;48.722;9.316;2023-05-10T10:17:42;17.30;99.90
70475;DHT22;57944;48.722;9.316;2023-05-10T10:20:13;17.90;99.90
70475;DHT22;57944;48.722;9.316;2023-05-10T10:22:44;18.70;99.90
70475;DHT22;57944;48.722;9.316;2023-05-10T10:25:17;19.50;99.90
70475;DHT22;57944;48.722;9.316;2023-05-10T10:27:52;20.20;99.90
70475;DHT22;57944;48.722;9.316;2023-05-10T10:30:34;21.50;99.90
70475;DHT22;57944;48.722;9.316;2023-05-10T10:33:28;22.70;99.90
70475;DHT22;57944;48.722;9.316;2023-05-10T10:36:05;23.00;99.90
70475;DHT22;57944;48.722;9.316;2023-05-10T10:38:37;22.80;99.90
70475;DHT22;57944;48.722;9.316;2023-05-10T10:41:29;22.30;99.90
70475;DHT22;57944;48.722;9.316;2023-05-10T10:47:00;21.70;99.90
70475;DHT22;57944;48.722;9.316;2023-05-10T10:49:42;21.70;99.90
70475;DHT22;57944;48.722;9.316;2023-05-10T10:52:25;21.30;99.90
70475;DHT22;57944;48.722;9.316;2023-05-10T10:54:58;20.60;99.90
70475;DHT22;57944;48.722;9.316;2023-05-10T10:57:42;19.20;99.90
70475;DHT22;57944;48.722;9.316;2023-05-10T11:00:24;19.00;99.90
70475;DHT22;57944;48.722;9.316;2023-05-10T11:02:58;18.90;99.90
70475;DHT22;57944;48.722;9.316;2023-05-10T11:05:39;19.10;99.90
70475;DHT22;57944;48.722;9.316;2023-05-10T11:08:11;19.60;99.90
70475;DHT22;57944;48.722;9.316;2023-05-10T11:10:50;19.50;99.90
70475;DHT22;57944;48.722;9.316;2023-05-10T11:13:37;19.00;99.90
70475;DHT22;57944;48.722;9.316;2023-05-10T11:16:12;18.60;99.90
70475;DHT22;57944;48.722;9.316;2023-05-10T11:18:57;18.30;99.90
70475;DHT22;57944;48.722;9.316;2023-05-10T11:21:29;18.00;99.90
70475;DHT22;57944;48.722;9.316;2023-05-10T11:24:00;17.40;99.90
70475;DHT22;57944;48.722;9.316;2023-05-10T11:26:33;16.90;99.90
70475;DHT22;57944;48.722;9.316;2023-05-10T11:29:07;16.40;99.90
70475;DHT22;57944;48.722;9.316;2023-05-10T11:31:41;16.20;99.90
70475;DHT22;57944;48.722;9.316;2023-05-10T11:34:13;16.10;99.90
70475;DHT22;57944;48.722;9.316;2023-05-10T11:36:53;15.90;99.90
70475;DHT22;57944;48.722;9.316;2023-05-10T11:39:25;15.90;99.90
70475;DHT22;57944;48.722;9.316;2023-05-10T11:41:56;15.80;99.90
70475;DHT22;57944;48.722;9.316;2023-05-10T11:44:31;16.00;99.90
70475;DHT22;57944;48.722;9.316;2023-05-10T11:47:01;16.30;99.90
70475;DHT22;57944;48.722;9.316;2023-05-10T11:49:32;16.80;99.90
70475;DHT22;57944;48.722;9.316;2023-05-10T11:52:05;16.80;99.90
70475;DHT22;57944;48.722;9.316;2023-05-10T11:54:37;16.50;99.90
70475;DHT22;57944;48.722;9.316;2023-05-10T11:57:15;16.40;99.90
70475;DHT22;57944;48.722;9.316;2023-05-10T11:59:47;16.30;99.90
70475;DHT22;57944;48.722;9.316;2023-05-10T12:02:22;15.80;99.90
70475;DHT22;57944;48.722;9.316;2023-05-10T12:04:52;15.00;99.90
70475;DHT22;57944;48.722;9.316;2023-05-10T12:07:25;14.40;99.90
70475;DHT22;57944;48.722;9.316;2023-05-10T12:10:02;14.20;99.90
70475;DHT22;57944;48.722;9.316;2023-05-10T12:12:39;14.00;99.90
70475;DHT22;57944;48.722;9.316;2023-05-10T12:15:17;13.80;99.90
70475;DHT22;57944;48.722;9.316;2023-05-10T12:17:49;13.80;99.90
70475;DHT22;57944;48.722;9.316;2023-05-10T12:20:20;14.00;99.90
70475;DHT22;57944;48.722;9.316;2023-05-10T12:22:53;14.20;99.90
70475;DHT22;57944;48.722;9.316;2023-05-10T12:25:29;14.30;99.90
70475;DHT22;57944;48.722;9.316;2023-05-10T12:28:02;14.40;99.90
70475;DHT22;57944;48.722;9.316;2023-05-10T12:30:36;14.50;99.90
70475;DHT22;57944;48.722;9.316;2023-05-10T12:33:07;14.70;99.90
70475;DHT22;57944;48.722;9.316;2023-05-10T12:35:45;15.00;99.90
70475;DHT22;57944;48.722;9.316;2023-05-10T12:38:24;15.60;99.90
70475;DHT22;57944;48.722;9.316;2023-05-10T12:40:56;16.00;99.90
70475;DHT22;57944;48.722;9.316;2023-05-10T12:43:27;16.20;99.90
70475;DHT22;57944;48.722;9.316;2023-05-10T12:46:00;16.70;99.90
70475;DHT22;57944;48.722;9.316;2023-05-10T12:48:34;17.50;99.90
70475;DHT22;57944;48.722;9.316;2023-05-10T12:51:04;18.20;99.90
70475;DHT22;57944;48.722;9.316;2023-05-10T12:53:36;18.60;99.90
70475;DHT22;57944;48.722;9.316;2023-05-10T12:56:09;18.60;99.90
70475;DHT22;57944;48.722;9.316;2023-05-10T12:58:39;18.30;99.90
70475;DHT22;57944;48.722;9.316;2023-05-10T13:01:17;18.30;99.90
70475;DHT22;57944;48.722;9.316;2023-05-10T13:03:47;18.10;99.90
70475;DHT22;57944;48.722;9.316;2023-05-10T13:06:17;17.10;99.90
70475;DHT22;57944;48.722;9.316;2023-05-10T13:08:47;16.40;99.90
70475;DHT22;57944;48.722;9.316;2023-05-10T13:11:17;16.00;99.90
70475;DHT22;57944;48.722;9.316;2023-05-10T13:13:48;15.50;99.90
70475;DHT22;57944;48.722;9.316;2023-05-10T13:16:21;15.10;99.90
70475;DHT22;57944;48.722;9.316;2023-05-10T13:18:51;14.90;99.90
70475;DHT22;57944;48.722;9.316;2023-05-10T13:21:21;14.80;99.90
70475;DHT22;57944;48.722;9.316;2023-05-10T13:23:51;14.60;99.90
70475;DHT22;57944;48.722;9.316;2023-05-10T13:26:21;14.60;99.90
70475;DHT22;57944;48.722;9.316;2023-05-10T13:28:52;14.70;99.90
70475;DHT22;57944;48.722;9.316;2023-05-10T13:31:24;15.10;99.90
70475;DHT22;57944;48.722;9.316;2023-05-10T13:33:55;15.50;99.90
70475;DHT22;57944;48.722;9.316;2023-05-10T13:36:25;16.00;99.90
70475;DHT22;57944;48.722;9.316;2023-05-10T13:38:55;16.80;99.90
70475;DHT22;57944;48.722;9.316;2023-05-10T13:41:25;17.60;99.90
70475;DHT22;57944;48.722;9.316;2023-05-10T13:43:55;18.10;99.90
70475;DHT22;57944;48.722;9.316;2023-05-10T13:46:28;18.40;99.90
70475;DHT22;57944;48.722;9.316;2023-05-10T13:48:58;18.60;99.90
70475;DHT22;57944;48.722;9.316;2023-05-10T13:51:28;18.80;99.90
70475;DHT22;57944;48.722;9.316;2023-05-10T13:53:59;19.30;99.90
70475;DHT22;57944;48.722;9.316;2023-05-10T13:56:29;19.50;99.90
70475;DHT22;57944;48.722;9.316;2023-05-10T13:58:59;19.20;99.90
70475;DHT22;57944;48.722;9.316;2023-05-10T14:01:31;19.20;99.90
70475;DHT22;57944;48.722;9.316;2023-05-10T14:04:01;19.60;99.90
70475;DHT22;57944;48.722;9.316;2023-05-10T14:06:31;19.70;99.90
70475;DHT22;57944;48.722;9.316;2023-05-10T14:09:02;19.50;99.90
70475;DHT22;57944;48.722;9.316;2023-05-10T14:11:32;19.60;99.90
70475;DHT22;57944;48.722;9.316;2023-05-10T14:14:02;19.70;99.90
70475;DHT22;57944;48.722;9.316;2023-05-10T14:16:34;19.60;99.90
70475;DHT22;57944;48.722;9.316;2023-05-10T14:19:04;19.60;99.90
70475;DHT22;57944;48.722;9.316;2023-05-10T14:21:34;19.50;99.90
70475;DHT22;57944;48.722;9.316;2023-05-10T14:24:05;19.90;99.90
70475;DHT22;57944;48.722;9.316;2023-05-10T14:26:35;20.30;99.90
70475;DHT22;57944;48.722;9.316;2023-05-10T14:29:05;20.50;99.90
70475;DHT22;57944;48.722;9.316;2023-05-10T14:31:40;21.00;99.90
70475;DHT22;57944;48.722;9.316;2023-05-10T14:34:11;21.00;99.90
70475;DHT22;57944;48.722;9.316;2023-05-10T14:36:40;21.10;99.90
70475;DHT22;57944;48.722;9.316;2023-05-10T14:39:10;21.00;99.90
70475;DHT22;57944;48.722;9.316;2023-05-10T14:41:41;21.00;99.90
70475;DHT22;57944;48.722;9.316;2023-05-10T14:44:13;20.60;99.90
70475;DHT22;57944;48.722;9.316;2023-05-10T14:46:46;20.10;99.90
70475;DHT22;57944;48.722;9.316;2023-05-10T14:49:16;19.80;99.90
70475;DHT22;57944;48.722;9.316;2023-05-10T14:51:49;19.40;99.90
70475;DHT22;57944;48.722;9.316;2023-05-10T14:54:19;19.30;99.90
70475;DHT22;57944;48.722;9.316;2023-05-10T14:56:49;19.10;99.90
70475;DHT22;57944;48.722;9.316;2023-05-10T14:59:20;19.10;99.90
70475;DHT22;57944;48.722;9.316;2023-05-10T15:01:52;19.40;99.90
70475;DHT22;57944;48.722;9.316;2023-05-10T15:04:23;19.50;99.90
70475;DHT22;57944;48.722;9.316;2023-05-10T15:06:55;19.30;99.90
70475;DHT22;57944;48.722;9.316;2023-05-10T15:09:26;19.00;99.90
70475;DHT22;57944;48.722;9.316;2023-05-10T15:11:56;18.90;99.90
70475;DHT22;57944;48.722;9.316;2023-05-10T15:14:26;18.70;99.90
70475;DHT22;57944;48.722;9.316;2023-05-10T15:16:59;18.60;99.90
70475;DHT22;57944;48.722;9.316;2023-05-10T15:19:29;18.60;99.90
70475;DHT22;57944;48.722;9.316;2023-05-10T15:21:59;18.80;99.90
70475;DHT22;57944;48.722;9.316;2023-05-10T15:24:30;18.70;99.90
70475;DHT22;57944;48.722;9.316;2023-05-10T15:27:01;18.80;99.90
70475;DHT22;57944;48.722;9.316;2023-05-10T15:29:31;18.90;99.90
70475;DHT22;57944;48.722;9.316;2023-05-10T15:32:05;18.90;99.90
70475;DHT22;57944;48.722;9.316;2023-05-10T15:34:35;18.80;99.90
70475;DHT22;57944;48.722;9.316;2023-05-10T15:37:05;19.00;99.90
70475;DHT22;57944;48.722;9.316;2023-05-10T15:39:35;19.10;99.90
70475;DHT22;57944;48.722;9.316;2023-05-10T15:42:05;19.50;99.90
70475;DHT22;57944;48.722;9.316;2023-05-10T15:44:35;19.90;99.90
70475;DHT22;57944;48.722;9.316;2023-05-10T15:47:07;20.10;99.90
70475;DHT22;57944;48.722;9.316;2023-05-10T15:49:37;20.30;99.90
70475;DHT22;57944;48.722;9.316;2023-05-10T15:52:07;20.30;99.90
70475;DHT22;57944;48.722;9.316;2023-05-10T15:54:38;20.20;99.90
70475;DHT22;57944;48.722;9.316;2023-05-10T15:57:08;20.30;99.90
70475;DHT22;57944;48.722;9.316;2023-05-10T15:59:38;20.10;99.90
70475;DHT22;57944;48.722;9.316;2023-05-10T16:02:11;19.70;99.90
70475;DHT22;57944;48.722;9.316;2023-05-10T16:04:41;19.70;99.90
70475;DHT22;57944;48.722;9.316;2023-05-10T16:07:12;19.50;99.90